sensor_id;sensor_type;location;lat;lon;timestamp;P1;durP1;ratioP1;P2;durP2;ratioP2
79122;SDS011;68526;44.600;26.032;2023-04-03T00:00:01;13.40;;;11.20;;
79122;SDS011;68526;44.600;26.032;2023-04-03T00:00:19;14.23;;;11.93;;
79122;SDS011;68526;44.600;26.032;2023-04-03T00:00:35;14.10;;;11.73;;
79122;SDS011;68526;44.600;26.032;2023-04-03T00:00:51;13.50;;;11.32;;
79122;SDS011;68526;44.600;26.032;2023-04-03T00:01:07;13.45;;;11.35;;
79122;SDS011;68526;44.600;26.032;2023-04-03T00:01:23;14.27;;;11.88;;
79122;SDS011;68526;44.600;26.032;2023-04-03T00:01:40;13.80;;;11.65;;
79122;SDS011;68526;44.600;26.032;2023-04-03T00:01:56;13.90;;;11.70;;
79122;SDS011;68526;44.600;26.032;2023-04-03T00:02:12;13.85;;;11.82;;
79122;SDS011;68526;44.600;26.032;2023-04-03T00:02:27;13.93;;;11.25;;
79122;SDS011;68526;44.600;26.032;2023-04-03T00:02:43;13.95;;;11.10;;
79122;SDS011;68526;44.600;26.032;2023-04-03T00:02:59;13.55;;;11.38;;
79122;SDS011;68526;44.600;26.032;2023-04-03T00:03:16;13.65;;;11.13;;
79122;SDS011;68526;44.600;26.032;2023-04-03T00:03:32;13.10;;;10.93;;
79122;SDS011;68526;44.600;26.032;2023-04-03T00:03:48;13.55;;;11.35;;
79122;SDS011;68526;44.600;26.032;2023-04-03T00:04:05;13.82;;;11.63;;
79122;SDS011;68526;44.600;26.032;2023-04-03T00:04:21;13.68;;;11.95;;
79122;SDS011;68526;44.600;26.032;2023-04-03T00:04:36;14.33;;;12.20;;
79122;SDS011;68526;44.600;26.032;2023-04-03T00:04:53;14.52;;;11.98;;
79122;SDS011;68526;44.600;26.032;2023-04-03T00:05:09;12.95;;;11.45;;
79122;SDS011;68526;44.600;26.032;2023-04-03T00:05:25;12.82;;;11.48;;
79122;SDS011;68526;44.600;26.032;2023-04-03T00:05:41;13.52;;;11.25;;
79122;SDS011;68526;44.600;26.032;2023-04-03T00:05:57;13.18;;;11.50;;
79122;SDS011;68526;44.600;26.032;2023-04-03T00:06:13;13.43;;;12.02;;
79122;SDS011;68526;44.600;26.032;2023-04-03T00:06:30;13.15;;;11.75;;
79122;SDS011;68526;44.600;26.032;2023-04-03T00:06:46;12.80;;;11.32;;
79122;SDS011;68526;44.600;26.032;2023-04-03T00:07:02;12.60;;;11.02;;
79122;SDS011;68526;44.600;26.032;2023-04-03T00:07:17;12.55;;;10.75;;
79122;SDS011;68526;44.600;26.032;2023-04-03T00:07:33;12.90;;;10.93;;
79122;SDS011;68526;44.600;26.032;2023-04-03T00:07:49;12.85;;;11.00;;
79122;SDS011;68526;44.600;26.032;2023-04-03T00:08:06;12.50;;;11.20;;
79122;SDS011;68526;44.600;26.032;2023-04-03T00:08:23;12.38;;;11.02;;
79122;SDS011;68526;44.600;26.032;2023-04-03T00:08:39;12.73;;;10.68;;
79122;SDS011;68526;44.600;26.032;2023-04-03T00:08:55;14.13;;;10.98;;
79122;SDS011;68526;44.600;26.032;2023-04-03T00:09:12;13.90;;;11.38;;
79122;SDS011;68526;44.600;26.032;2023-04-03T00:09:29;13.52;;;11.63;;
79122;SDS011;68526;44.600;26.032;2023-04-03T00:09:44;13.38;;;11.93;;
79122;SDS011;68526;44.600;26.032;2023-04-03T00:10:00;13.52;;;11.55;;
79122;SDS011;68526;44.600;26.032;2023-04-03T00:10:16;14.10;;;11.13;;
79122;SDS011;68526;44.600;26.032;2023-04-03T00:10:32;12.70;;;10.68;;
79122;SDS011;68526;44.600;26.032;2023-04-03T00:10:49;12.13;;;10.82;;
79122;SDS011;68526;44.600;26.032;2023-04-03T00:11:05;12.82;;;11.50;;
79122;SDS011;68526;44.600;26.032;2023-04-03T00:11:21;12.65;;;11.05;;
79122;SDS011;68526;44.600;26.032;2023-04-03T00:11:37;12.52;;;10.85;;
79122;SDS011;68526;44.600;26.032;2023-04-03T00:11:52;12.90;;;10.90;;
79122;SDS011;68526;44.600;26.032;2023-04-03T00:12:08;13.10;;;10.77;;
79122;SDS011;68526;44.600;26.032;2023-04-03T00:12:25;13.55;;;11.00;;
79122;SDS011;68526;44.600;26.032;2023-04-03T00:12:41;13.20;;;11.27;;
79122;SDS011;68526;44.600;26.032;2023-04-03T00:12:58;11.93;;;10.68;;
79122;SDS011;68526;44.600;26.032;2023-04-03T00:13:14;11.75;;;10.48;;
79122;SDS011;68526;44.600;26.032;2023-04-03T00:13:30;12.27;;;10.95;;
79122;SDS011;68526;44.600;26.032;2023-04-03T00:13:47;12.25;;;10.82;;
79122;SDS011;68526;44.600;26.032;2023-04-03T00:14:03;13.27;;;11.27;;
79122;SDS011;68526;44.600;26.032;2023-04-03T00:14:19;13.95;;;11.63;;
79122;SDS011;68526;44.600;26.032;2023-04-03T00:14:35;13.48;;;11.35;;
79122;SDS011;68526;44.600;26.032;2023-04-03T00:14:51;14.03;;;11.37;;
79122;SDS011;68526;44.600;26.032;2023-04-03T00:15:07;13.57;;;11.13;;
79122;SDS011;68526;44.600;26.032;2023-04-03T00:15:24;11.98;;;10.75;;
79122;SDS011;68526;44.600;26.032;2023-04-03T00:15:40;11.85;;;10.65;;
79122;SDS011;68526;44.600;26.032;2023-04-03T00:15:57;12.35;;;10.98;;
79122;SDS011;68526;44.600;26.032;2023-04-03T00:16:12;12.38;;;10.52;;
79122;SDS011;68526;44.600;26.032;2023-04-03T00:16:28;11.83;;;10.37;;
79122;SDS011;68526;44.600;26.032;2023-04-03T00:16:45;12.68;;;10.90;;
79122;SDS011;68526;44.600;26.032;2023-04-03T00:17:01;12.57;;;11.07;;
79122;SDS011;68526;44.600;26.032;2023-04-03T00:17:17;12.18;;;10.85;;
79122;SDS011;68526;44.600;26.032;2023-04-03T00:17:32;12.53;;;10.80;;
79122;SDS011;68526;44.600;26.032;2023-04-03T00:17:48;12.95;;;10.75;;
79122;SDS011;68526;44.600;26.032;2023-04-03T00:18:04;13.15;;;10.95;;
79122;SDS011;68526;44.600;26.032;2023-04-03T00:18:20;12.55;;;10.60;;
79122;SDS011;68526;44.600;26.032;2023-04-03T00:18:38;12.38;;;10.73;;
79122;SDS011;68526;44.600;26.032;2023-04-03T00:18:54;12.40;;;10.82;;
79122;SDS011;68526;44.600;26.032;2023-04-03T00:19:10;12.20;;;10.15;;
79122;SDS011;68526;44.600;26.032;2023-04-03T00:19:27;13.25;;;10.48;;
79122;SDS011;68526;44.600;26.032;2023-04-03T00:19:42;13.63;;;10.77;;
79122;SDS011;68526;44.600;26.032;2023-04-03T00:19:59;13.65;;;10.70;;
79122;SDS011;68526;44.600;26.032;2023-04-03T00:20:15;12.13;;;10.75;;
79122;SDS011;68526;44.600;26.032;2023-04-03T00:20:32;12.25;;;10.82;;
79122;SDS011;68526;44.600;26.032;2023-04-03T00:20:48;13.02;;;10.77;;
79122;SDS011;68526;44.600;26.032;2023-04-03T00:21:04;13.05;;;10.60;;
79122;SDS011;68526;44.600;26.032;2023-04-03T00:21:20;12.60;;;10.38;;
79122;SDS011;68526;44.600;26.032;2023-04-03T00:21:37;12.85;;;10.90;;
79122;SDS011;68526;44.600;26.032;2023-04-03T00:21:53;12.10;;;10.77;;
79122;SDS011;68526;44.600;26.032;2023-04-03T00:22:09;11.97;;;10.67;;
79122;SDS011;68526;44.600;26.032;2023-04-03T00:22:24;12.52;;;11.15;;
79122;SDS011;68526;44.600;26.032;2023-04-03T00:22:41;13.10;;;11.10;;
79122;SDS011;68526;44.600;26.032;2023-04-03T00:22:57;13.10;;;10.80;;
79122;SDS011;68526;44.600;26.032;2023-04-03T00:23:13;13.30;;;10.73;;
79122;SDS011;68526;44.600;26.032;2023-04-03T00:23:30;13.30;;;10.75;;
79122;SDS011;68526;44.600;26.032;2023-04-03T00:23:46;12.63;;;11.15;;
79122;SDS011;68526;44.600;26.032;2023-04-03T00:24:02;12.40;;;11.13;;
79122;SDS011;68526;44.600;26.032;2023-04-03T00:24:18;11.85;;;10.55;;
79122;SDS011;68526;44.600;26.032;2023-04-03T00:24:34;12.25;;;10.88;;
79122;SDS011;68526;44.600;26.032;2023-04-03T00:24:50;12.77;;;10.65;;
79122;SDS011;68526;44.600;26.032;2023-04-03T00:25:07;13.10;;;10.63;;
79122;SDS011;68526;44.600;26.032;2023-04-03T00:25:23;11.82;;;10.38;;
79122;SDS011;68526;44.600;26.032;2023-04-03T00:25:39;11.10;;;9.90;;
79122;SDS011;68526;44.600;26.032;2023-04-03T00:25:55;11.85;;;10.55;;
79122;SDS011;68526;44.600;26.032;2023-04-03T00:26:11;12.02;;;10.10;;
79122;SDS011;68526;44.600;26.032;2023-04-03T00:26:28;10.18;;;9.05;;
79122;SDS011;68526;44.600;26.032;2023-04-03T00:26:44;9.82;;;8.82;;
79122;SDS011;68526;44.600;26.032;2023-04-03T00:27:00;9.80;;;8.77;;
79122;SDS011;68526;44.600;26.032;2023-04-03T00:27:16;9.93;;;8.82;;
79122;SDS011;68526;44.600;26.032;2023-04-03T00:27:32;10.20;;;9.10;;
79122;SDS011;68526;44.600;26.032;2023-04-03T00:27:48;10.48;;;9.38;;
79122;SDS011;68526;44.600;26.032;2023-04-03T00:28:06;10.63;;;9.52;;
79122;SDS011;68526;44.600;26.032;2023-04-03T00:28:22;10.05;;;8.95;;
79122;SDS011;68526;44.600;26.032;2023-04-03T00:28:38;9.48;;;8.48;;
79122;SDS011;68526;44.600;26.032;2023-04-03T00:28:54;9.80;;;8.80;;
79122;SDS011;68526;44.600;26.032;2023-04-03T00:29:09;9.77;;;8.77;;
79122;SDS011;68526;44.600;26.032;2023-04-03T00:29:25;9.93;;;8.77;;
79122;SDS011;68526;44.600;26.032;2023-04-03T00:29:42;9.48;;;8.48;;
79122;SDS011;68526;44.600;26.032;2023-04-03T00:29:58;9.45;;;8.55;;
79122;SDS011;68526;44.600;26.032;2023-04-03T00:30:14;9.50;;;8.60;;
79122;SDS011;68526;44.600;26.032;2023-04-03T00:30:32;9.77;;;8.52;;
79122;SDS011;68526;44.600;26.032;2023-04-03T00:30:48;10.20;;;8.65;;
79122;SDS011;68526;44.600;26.032;2023-04-03T00:31:06;9.50;;;8.50;;
79122;SDS011;68526;44.600;26.032;2023-04-03T00:31:21;9.80;;;8.80;;
79122;SDS011;68526;44.600;26.032;2023-04-03T00:31:37;10.00;;;9.00;;
79122;SDS011;68526;44.600;26.032;2023-04-03T00:31:53;9.65;;;8.65;;
79122;SDS011;68526;44.600;26.032;2023-04-03T00:32:09;10.20;;;8.50;;
79122;SDS011;68526;44.600;26.032;2023-04-03T00:32:26;9.65;;;8.35;;
79122;SDS011;68526;44.600;26.032;2023-04-03T00:32:42;9.07;;;8.10;;
79122;SDS011;68526;44.600;26.032;2023-04-03T00:32:58;9.45;;;8.10;;
79122;SDS011;68526;44.600;26.032;2023-04-03T00:33:14;9.35;;;8.35;;
79122;SDS011;68526;44.600;26.032;2023-04-03T00:33:29;9.35;;;8.45;;
79122;SDS011;68526;44.600;26.032;2023-04-03T00:33:45;9.20;;;8.23;;
79122;SDS011;68526;44.600;26.032;2023-04-03T00:34:02;9.48;;;8.48;;
79122;SDS011;68526;44.600;26.032;2023-04-03T00:34:18;9.40;;;8.50;;
79122;SDS011;68526;44.600;26.032;2023-04-03T00:34:34;9.02;;;8.13;;
79122;SDS011;68526;44.600;26.032;2023-04-03T00:34:50;8.73;;;7.85;;
79122;SDS011;68526;44.600;26.032;2023-04-03T00:35:06;8.63;;;7.72;;
79122;SDS011;68526;44.600;26.032;2023-04-03T00:35:23;9.15;;;8.20;;
79122;SDS011;68526;44.600;26.032;2023-04-03T00:35:41;9.48;;;8.48;;
79122;SDS011;68526;44.600;26.032;2023-04-03T00:35:57;9.40;;;8.30;;
79122;SDS011;68526;44.600;26.032;2023-04-03T00:36:13;9.25;;;8.30;;
79122;SDS011;68526;44.600;26.032;2023-04-03T00:36:29;9.02;;;8.13;;
79122;SDS011;68526;44.600;26.032;2023-04-03T00:36:45;9.18;;;8.18;;
79122;SDS011;68526;44.600;26.032;2023-04-03T00:37:02;10.00;;;8.70;;
79122;SDS011;68526;44.600;26.032;2023-04-03T00:37:17;9.68;;;8.60;;
79122;SDS011;68526;44.600;26.032;2023-04-03T00:37:33;9.33;;;8.33;;
79122;SDS011;68526;44.600;26.032;2023-04-03T00:37:50;9.15;;;8.25;;
79122;SDS011;68526;44.600;26.032;2023-04-03T00:38:06;8.90;;;8.00;;
79122;SDS011;68526;44.600;26.032;2023-04-03T00:38:23;9.30;;;8.07;;
79122;SDS011;68526;44.600;26.032;2023-04-03T00:38:39;9.60;;;8.48;;
79122;SDS011;68526;44.600;26.032;2023-04-03T00:38:55;9.77;;;8.57;;
79122;SDS011;68526;44.600;26.032;2023-04-03T00:39:11;8.95;;;8.00;;
79122;SDS011;68526;44.600;26.032;2023-04-03T00:39:27;8.77;;;7.88;;
79122;SDS011;68526;44.600;26.032;2023-04-03T00:39:43;9.23;;;8.32;;
79122;SDS011;68526;44.600;26.032;2023-04-03T00:40:00;9.20;;;8.30;;
79122;SDS011;68526;44.600;26.032;2023-04-03T00:40:16;9.18;;;8.05;;
79122;SDS011;68526;44.600;26.032;2023-04-03T00:40:33;9.50;;;8.30;;
79122;SDS011;68526;44.600;26.032;2023-04-03T00:40:50;10.25;;;8.52;;
79122;SDS011;68526;44.600;26.032;2023-04-03T00:41:06;10.65;;;8.68;;
79122;SDS011;68526;44.600;26.032;2023-04-03T00:41:24;9.57;;;8.57;;
79122;SDS011;68526;44.600;26.032;2023-04-03T00:41:40;9.55;;;8.52;;
79122;SDS011;68526;44.600;26.032;2023-04-03T00:41:56;9.63;;;8.63;;
79122;SDS011;68526;44.600;26.032;2023-04-03T00:42:12;9.77;;;8.77;;
79122;SDS011;68526;44.600;26.032;2023-04-03T00:42:28;10.05;;;8.98;;
79122;SDS011;68526;44.600;26.032;2023-04-03T00:42:45;9.77;;;8.77;;
79122;SDS011;68526;44.600;26.032;2023-04-03T00:43:05;9.60;;;8.60;;
79122;SDS011;68526;44.600;26.032;2023-04-03T00:43:29;9.52;;;8.50;;
79122;SDS011;68526;44.600;26.032;2023-04-03T00:43:45;9.27;;;8.27;;
79122;SDS011;68526;44.600;26.032;2023-04-03T00:45:31;7.95;;;7.15;;
79122;SDS011;68526;44.600;26.032;2023-04-03T00:45:50;7.72;;;6.93;;
79122;SDS011;68526;44.600;26.032;2023-04-03T00:46:07;7.38;;;6.63;;
79122;SDS011;68526;44.600;26.032;2023-04-03T00:46:23;7.15;;;6.38;;
79122;SDS011;68526;44.600;26.032;2023-04-03T00:46:40;7.68;;;6.78;;
79122;SDS011;68526;44.600;26.032;2023-04-03T00:46:56;8.45;;;7.07;;
79122;SDS011;68526;44.600;26.032;2023-04-03T00:47:12;8.40;;;7.50;;
79122;SDS011;68526;44.600;26.032;2023-04-03T00:47:31;8.52;;;7.72;;
79122;SDS011;68526;44.600;26.032;2023-04-03T00:47:47;8.05;;;7.25;;
79122;SDS011;68526;44.600;26.032;2023-04-03T00:48:03;8.65;;;6.95;;
79122;SDS011;68526;44.600;26.032;2023-04-03T00:48:22;8.00;;;6.90;;
79122;SDS011;68526;44.600;26.032;2023-04-03T00:48:43;8.05;;;7.25;;
79122;SDS011;68526;44.600;26.032;2023-04-03T00:49:01;9.15;;;7.38;;
79122;SDS011;68526;44.600;26.032;2023-04-03T00:49:16;9.55;;;7.40;;
79122;SDS011;68526;44.600;26.032;2023-04-03T00:49:32;8.43;;;7.53;;
79122;SDS011;68526;44.600;26.032;2023-04-03T00:49:49;8.50;;;7.70;;
79122;SDS011;68526;44.600;26.032;2023-04-03T00:50:07;8.13;;;7.32;;
79122;SDS011;68526;44.600;26.032;2023-04-03T00:50:23;8.48;;;7.60;;
79122;SDS011;68526;44.600;26.032;2023-04-03T00:50:40;8.38;;;7.47;;
79122;SDS011;68526;44.600;26.032;2023-04-03T00:50:57;8.15;;;7.35;;
79122;SDS011;68526;44.600;26.032;2023-04-03T00:51:16;8.82;;;7.93;;
79122;SDS011;68526;44.600;26.032;2023-04-03T00:51:35;8.55;;;7.65;;
79122;SDS011;68526;44.600;26.032;2023-04-03T00:51:50;8.50;;;7.53;;
79122;SDS011;68526;44.600;26.032;2023-04-03T00:52:08;9.13;;;7.75;;
79122;SDS011;68526;44.600;26.032;2023-04-03T00:52:30;8.38;;;7.47;;
79122;SDS011;68526;44.600;26.032;2023-04-03T00:52:46;8.85;;;7.95;;
79122;SDS011;68526;44.600;26.032;2023-04-03T00:53:04;9.15;;;8.13;;
79122;SDS011;68526;44.600;26.032;2023-04-03T00:53:25;9.10;;;7.70;;
79122;SDS011;68526;44.600;26.032;2023-04-03T00:53:46;8.65;;;7.43;;
79122;SDS011;68526;44.600;26.032;2023-04-03T00:54:05;8.25;;;7.40;;
79122;SDS011;68526;44.600;26.032;2023-04-03T00:54:24;8.68;;;7.78;;
79122;SDS011;68526;44.600;26.032;2023-04-03T00:54:41;8.77;;;7.93;;
79122;SDS011;68526;44.600;26.032;2023-04-03T00:55:00;8.82;;;7.93;;
79122;SDS011;68526;44.600;26.032;2023-04-03T00:55:19;8.77;;;7.88;;
79122;SDS011;68526;44.600;26.032;2023-04-03T00:55:35;9.63;;;8.10;;
79122;SDS011;68526;44.600;26.032;2023-04-03T00:55:53;9.55;;;8.05;;
79122;SDS011;68526;44.600;26.032;2023-04-03T00:56:12;8.25;;;7.45;;
79122;SDS011;68526;44.600;26.032;2023-04-03T00:56:32;8.55;;;7.65;;
79122;SDS011;68526;44.600;26.032;2023-04-03T00:56:48;8.75;;;7.78;;
79122;SDS011;68526;44.600;26.032;2023-04-03T00:57:06;9.18;;;7.93;;
79122;SDS011;68526;44.600;26.032;2023-04-03T00:57:23;9.23;;;8.20;;
79122;SDS011;68526;44.600;26.032;2023-04-03T00:57:40;9.18;;;8.10;;
79122;SDS011;68526;44.600;26.032;2023-04-03T00:57:57;9.07;;;7.95;;
79122;SDS011;68526;44.600;26.032;2023-04-03T00:58:17;9.02;;;8.13;;
79122;SDS011;68526;44.600;26.032;2023-04-03T00:58:37;8.43;;;7.53;;
79122;SDS011;68526;44.600;26.032;2023-04-03T00:58:58;8.73;;;7.82;;
79122;SDS011;68526;44.600;26.032;2023-04-03T00:59:18;9.15;;;8.23;;
79122;SDS011;68526;44.600;26.032;2023-04-03T00:59:41;9.25;;;8.35;;
79122;SDS011;68526;44.600;26.032;2023-04-03T01:00:02;9.80;;;8.80;;
79122;SDS011;68526;44.600;26.032;2023-04-03T01:00:21;9.43;;;8.43;;
79122;SDS011;68526;44.600;26.032;2023-04-03T01:00:39;9.52;;;8.40;;
79122;SDS011;68526;44.600;26.032;2023-04-03T01:00:59;9.80;;;8.80;;
79122;SDS011;68526;44.600;26.032;2023-04-03T01:01:21;10.13;;;9.10;;
79122;SDS011;68526;44.600;26.032;2023-04-03T01:01:40;9.73;;;8.80;;
79122;SDS011;68526;44.600;26.032;2023-04-03T01:01:57;9.50;;;8.60;;
79122;SDS011;68526;44.600;26.032;2023-04-03T01:02:15;9.43;;;8.52;;
79122;SDS011;68526;44.600;26.032;2023-04-03T01:02:31;9.60;;;8.70;;
79122;SDS011;68526;44.600;26.032;2023-04-03T01:02:47;9.30;;;8.40;;
79122;SDS011;68526;44.600;26.032;2023-04-03T01:03:02;9.20;;;8.20;;
79122;SDS011;68526;44.600;26.032;2023-04-03T01:03:18;8.65;;;7.78;;
79122;SDS011;68526;44.600;26.032;2023-04-03T01:03:35;9.07;;;8.18;;
79122;SDS011;68526;44.600;26.032;2023-04-03T01:03:52;9.30;;;8.40;;
79122;SDS011;68526;44.600;26.032;2023-04-03T01:04:24;9.10;;;8.18;;
79122;SDS011;68526;44.600;26.032;2023-04-03T01:04:42;9.55;;;8.57;;
79122;SDS011;68526;44.600;26.032;2023-04-03T01:04:58;9.95;;;8.95;;
79122;SDS011;68526;44.600;26.032;2023-04-03T01:05:15;9.38;;;8.43;;
79122;SDS011;68526;44.600;26.032;2023-04-03T01:05:32;8.93;;;8.02;;
79122;SDS011;68526;44.600;26.032;2023-04-03T01:05:49;9.30;;;8.35;;
79122;SDS011;68526;44.600;26.032;2023-04-03T01:06:05;9.30;;;8.40;;
79122;SDS011;68526;44.600;26.032;2023-04-03T01:06:24;9.32;;;8.43;;
79122;SDS011;68526;44.600;26.032;2023-04-03T01:06:42;9.38;;;8.48;;
79122;SDS011;68526;44.600;26.032;2023-04-03T01:07:00;9.32;;;8.38;;
79122;SDS011;68526;44.600;26.032;2023-04-03T01:07:19;9.82;;;8.82;;
79122;SDS011;68526;44.600;26.032;2023-04-03T01:07:38;9.93;;;8.95;;
79122;SDS011;68526;44.600;26.032;2023-04-03T01:07:56;9.70;;;8.70;;
79122;SDS011;68526;44.600;26.032;2023-04-03T01:08:13;10.27;;;9.18;;
79122;SDS011;68526;44.600;26.032;2023-04-03T01:08:29;10.07;;;9.03;;
79122;SDS011;68526;44.600;26.032;2023-04-03T01:08:46;9.48;;;8.48;;
79122;SDS011;68526;44.600;26.032;2023-04-03T01:09:04;9.93;;;8.93;;
79122;SDS011;68526;44.600;26.032;2023-04-03T01:09:21;9.90;;;8.90;;
79122;SDS011;68526;44.600;26.032;2023-04-03T01:09:37;9.80;;;8.80;;
79122;SDS011;68526;44.600;26.032;2023-04-03T01:09:56;9.65;;;8.65;;
79122;SDS011;68526;44.600;26.032;2023-04-03T01:10:15;10.50;;;8.82;;
79122;SDS011;68526;44.600;26.032;2023-04-03T01:10:32;10.40;;;9.20;;
79122;SDS011;68526;44.600;26.032;2023-04-03T01:10:49;9.95;;;8.95;;
79122;SDS011;68526;44.600;26.032;2023-04-03T01:11:05;9.60;;;8.60;;
79122;SDS011;68526;44.600;26.032;2023-04-03T01:11:21;9.60;;;8.50;;
79122;SDS011;68526;44.600;26.032;2023-04-03T01:11:37;10.02;;;8.95;;
79122;SDS011;68526;44.600;26.032;2023-04-03T01:11:52;10.30;;;9.10;;
79122;SDS011;68526;44.600;26.032;2023-04-03T01:12:13;10.93;;;9.13;;
79122;SDS011;68526;44.600;26.032;2023-04-03T01:12:31;10.95;;;9.30;;
79122;SDS011;68526;44.600;26.032;2023-04-03T01:12:48;10.25;;;8.95;;
79122;SDS011;68526;44.600;26.032;2023-04-03T01:13:18;9.93;;;8.93;;
79122;SDS011;68526;44.600;26.032;2023-04-03T01:13:36;10.18;;;9.18;;
79122;SDS011;68526;44.600;26.032;2023-04-03T01:13:53;10.23;;;9.23;;
79122;SDS011;68526;44.600;26.032;2023-04-03T01:14:08;10.38;;;9.38;;
79122;SDS011;68526;44.600;26.032;2023-04-03T01:14:24;10.25;;;9.20;;
79122;SDS011;68526;44.600;26.032;2023-04-03T01:14:40;10.50;;;9.40;;
79122;SDS011;68526;44.600;26.032;2023-04-03T01:14:56;11.13;;;9.70;;
79122;SDS011;68526;44.600;26.032;2023-04-03T01:15:15;11.20;;;9.52;;
79122;SDS011;68526;44.600;26.032;2023-04-03T01:15:33;10.57;;;9.48;;
79122;SDS011;68526;44.600;26.032;2023-04-03T01:15:50;10.60;;;9.50;;
79122;SDS011;68526;44.600;26.032;2023-04-03T01:16:06;11.53;;;9.63;;
79122;SDS011;68526;44.600;26.032;2023-04-03T01:16:22;10.55;;;9.30;;
79122;SDS011;68526;44.600;26.032;2023-04-03T01:16:39;10.32;;;9.23;;
79122;SDS011;68526;44.600;26.032;2023-04-03T01:16:54;10.32;;;9.02;;
79122;SDS011;68526;44.600;26.032;2023-04-03T01:17:29;10.20;;;9.10;;
79122;SDS011;68526;44.600;26.032;2023-04-03T01:17:48;11.10;;;9.93;;
79122;SDS011;68526;44.600;26.032;2023-04-03T01:18:09;11.02;;;9.77;;
79122;SDS011;68526;44.600;26.032;2023-04-03T01:18:25;10.60;;;9.30;;
79122;SDS011;68526;44.600;26.032;2023-04-03T01:18:41;10.45;;;9.35;;
79122;SDS011;68526;44.600;26.032;2023-04-03T01:18:59;10.25;;;9.15;;
79122;SDS011;68526;44.600;26.032;2023-04-03T01:19:16;10.07;;;9.02;;
79122;SDS011;68526;44.600;26.032;2023-04-03T01:19:35;10.05;;;9.05;;
79122;SDS011;68526;44.600;26.032;2023-04-03T01:19:59;9.45;;;8.50;;
79122;SDS011;68526;44.600;26.032;2023-04-03T01:22:15;9.70;;;8.73;;
79122;SDS011;68526;44.600;26.032;2023-04-03T01:22:36;10.10;;;9.10;;
79122;SDS011;68526;44.600;26.032;2023-04-03T01:22:56;10.30;;;9.25;;
79122;SDS011;68526;44.600;26.032;2023-04-03T01:23:22;10.17;;;9.17;;
79122;SDS011;68526;44.600;26.032;2023-04-03T01:23:48;9.55;;;8.55;;
79122;SDS011;68526;44.600;26.032;2023-04-03T01:24:18;10.60;;;9.13;;
79122;SDS011;68526;44.600;26.032;2023-04-03T01:24:41;10.05;;;9.00;;
79122;SDS011;68526;44.600;26.032;2023-04-03T01:24:57;10.32;;;9.32;;
79122;SDS011;68526;44.600;26.032;2023-04-03T01:25:13;10.60;;;9.60;;
79122;SDS011;68526;44.600;26.032;2023-04-03T01:25:29;10.30;;;9.27;;
79122;SDS011;68526;44.600;26.032;2023-04-03T01:25:46;10.00;;;8.90;;
79122;SDS011;68526;44.600;26.032;2023-04-03T01:26:03;10.00;;;8.98;;
79122;SDS011;68526;44.600;26.032;2023-04-03T01:26:20;10.38;;;9.20;;
79122;SDS011;68526;44.600;26.032;2023-04-03T01:26:36;10.63;;;9.43;;
79122;SDS011;68526;44.600;26.032;2023-04-03T01:26:52;10.65;;;9.43;;
79122;SDS011;68526;44.600;26.032;2023-04-03T01:27:08;10.60;;;9.50;;
79122;SDS011;68526;44.600;26.032;2023-04-03T01:27:27;10.55;;;9.40;;
79122;SDS011;68526;44.600;26.032;2023-04-03T01:27:42;10.27;;;9.03;;
79122;SDS011;68526;44.600;26.032;2023-04-03T01:27:58;9.98;;;8.93;;
79122;SDS011;68526;44.600;26.032;2023-04-03T01:28:15;10.10;;;9.02;;
79122;SDS011;68526;44.600;26.032;2023-04-03T01:28:34;10.15;;;8.98;;
79122;SDS011;68526;44.600;26.032;2023-04-03T01:28:53;10.02;;;9.02;;
79122;SDS011;68526;44.600;26.032;2023-04-03T01:29:09;10.20;;;9.20;;
79122;SDS011;68526;44.600;26.032;2023-04-03T01:29:26;10.23;;;9.20;;
79122;SDS011;68526;44.600;26.032;2023-04-03T01:29:42;10.13;;;9.13;;
79122;SDS011;68526;44.600;26.032;2023-04-03T01:29:59;10.32;;;9.32;;
79122;SDS011;68526;44.600;26.032;2023-04-03T01:30:17;10.45;;;9.38;;
79122;SDS011;68526;44.600;26.032;2023-04-03T01:30:36;10.45;;;9.32;;
79122;SDS011;68526;44.600;26.032;2023-04-03T01:30:59;9.60;;;8.63;;
79122;SDS011;68526;44.600;26.032;2023-04-03T01:31:22;9.57;;;8.57;;
79122;SDS011;68526;44.600;26.032;2023-04-03T01:31:51;9.60;;;8.60;;
79122;SDS011;68526;44.600;26.032;2023-04-03T01:32:08;9.93;;;8.82;;
79122;SDS011;68526;44.600;26.032;2023-04-03T01:32:24;10.38;;;9.07;;
79122;SDS011;68526;44.600;26.032;2023-04-03T01:32:39;10.65;;;9.13;;
79122;SDS011;68526;44.600;26.032;2023-04-03T01:32:55;9.30;;;8.40;;
79122;SDS011;68526;44.600;26.032;2023-04-03T01:33:12;9.50;;;8.60;;
79122;SDS011;68526;44.600;26.032;2023-04-03T01:33:28;9.60;;;8.60;;
79122;SDS011;68526;44.600;26.032;2023-04-03T01:33:44;8.82;;;7.93;;
79122;SDS011;68526;44.600;26.032;2023-04-03T01:34:00;8.70;;;7.85;;
79122;SDS011;68526;44.600;26.032;2023-04-03T01:34:17;9.13;;;8.23;;
79122;SDS011;68526;44.600;26.032;2023-04-03T01:34:34;8.77;;;7.93;;
79122;SDS011;68526;44.600;26.032;2023-04-03T01:34:50;8.80;;;8.00;;
79122;SDS011;68526;44.600;26.032;2023-04-03T01:35:07;9.20;;;8.40;;
79122;SDS011;68526;44.600;26.032;2023-04-03T01:35:24;9.20;;;8.30;;
79122;SDS011;68526;44.600;26.032;2023-04-03T01:35:40;9.18;;;8.27;;
79122;SDS011;68526;44.600;26.032;2023-04-03T01:35:57;9.15;;;8.25;;
79122;SDS011;68526;44.600;26.032;2023-04-03T01:36:13;8.50;;;7.60;;
79122;SDS011;68526;44.600;26.032;2023-04-03T01:36:31;8.20;;;7.40;;
79122;SDS011;68526;44.600;26.032;2023-04-03T01:36:47;8.68;;;7.78;;
79122;SDS011;68526;44.600;26.032;2023-04-03T01:37:03;9.02;;;8.13;;
79122;SDS011;68526;44.600;26.032;2023-04-03T01:37:20;8.68;;;7.88;;
79122;SDS011;68526;44.600;26.032;2023-04-03T01:37:36;9.07;;;8.27;;
79122;SDS011;68526;44.600;26.032;2023-04-03T01:37:52;8.98;;;8.07;;
79122;SDS011;68526;44.600;26.032;2023-04-03T01:38:07;8.52;;;7.65;;
79122;SDS011;68526;44.600;26.032;2023-04-03T01:38:23;8.88;;;8.05;;
79122;SDS011;68526;44.600;26.032;2023-04-03T01:38:40;9.30;;;8.40;;
79122;SDS011;68526;44.600;26.032;2023-04-03T01:38:57;9.85;;;8.85;;
79122;SDS011;68526;44.600;26.032;2023-04-03T01:39:14;9.35;;;8.45;;
79122;SDS011;68526;44.600;26.032;2023-04-03T01:39:30;8.97;;;8.07;;
79122;SDS011;68526;44.600;26.032;2023-04-03T01:39:46;9.23;;;8.32;;
79122;SDS011;68526;44.600;26.032;2023-04-03T01:40:03;9.18;;;8.30;;
79122;SDS011;68526;44.600;26.032;2023-04-03T01:40:20;8.80;;;7.90;;
79122;SDS011;68526;44.600;26.032;2023-04-03T01:40:36;9.57;;;8.18;;
79122;SDS011;68526;44.600;26.032;2023-04-03T01:40:52;10.40;;;8.50;;
79122;SDS011;68526;44.600;26.032;2023-04-03T01:41:08;8.93;;;7.95;;
79122;SDS011;68526;44.600;26.032;2023-04-03T01:41:24;9.40;;;8.20;;
79122;SDS011;68526;44.600;26.032;2023-04-03T01:41:40;9.32;;;8.43;;
79122;SDS011;68526;44.600;26.032;2023-04-03T01:41:57;8.77;;;7.97;;
79122;SDS011;68526;44.600;26.032;2023-04-03T01:42:14;9.35;;;8.35;;
79122;SDS011;68526;44.600;26.032;2023-04-03T01:42:31;9.70;;;8.75;;
79122;SDS011;68526;44.600;26.032;2023-04-03T01:42:47;9.73;;;8.43;;
79122;SDS011;68526;44.600;26.032;2023-04-03T01:43:02;9.43;;;7.90;;
79122;SDS011;68526;44.600;26.032;2023-04-03T01:43:19;8.88;;;7.97;;
79122;SDS011;68526;44.600;26.032;2023-04-03T01:43:35;8.73;;;7.83;;
79122;SDS011;68526;44.600;26.032;2023-04-03T01:43:51;8.90;;;8.00;;
79122;SDS011;68526;44.600;26.032;2023-04-03T01:44:07;8.88;;;7.97;;